createdAt,value
2018-05-27T00:00:29.491Z,33.72
2018-05-27T00:01:00.669Z,34.83
2018-05-27T00:01:31.851Z,35.58
2018-05-27T00:02:03.079Z,36.40
2018-05-27T00:02:34.267Z,36.85
2018-05-27T00:03:05.460Z,33.50
2018-05-27T00:03:36.691Z,35.75
2018-05-27T00:04:07.877Z,35.00
2018-05-27T00:04:39.060Z,36.00
2018-05-27T00:05:10.241Z,37.13
2018-05-27T00:05:41.431Z,35.70
2018-05-27T00:06:12.641Z,34.67
2018-05-27T00:06:43.821Z,35.55
2018-05-27T00:07:15.041Z,32.22
2018-05-27T00:07:46.229Z,30.58
2018-05-27T00:08:17.412Z,31.75
2018-05-27T00:08:48.592Z,30.33
2018-05-27T00:09:19.778Z,30.25
2018-05-27T00:09:50.963Z,30.05
2018-05-27T00:10:22.152Z,28.10
2018-05-27T00:10:53.386Z,26.98
2018-05-27T00:11:24.589Z,27.67
2018-05-27T00:11:55.781Z,26.80
2018-05-27T00:12:26.969Z,26.95
2018-05-27T00:12:58.163Z,24.27
2018-05-27T00:13:29.361Z,25.50
2018-05-27T00:14:00.552Z,24.00
2018-05-27T00:14:31.745Z,23.87
2018-05-27T00:15:02.940Z,26.10
2018-05-27T00:15:34.150Z,24.60
2018-05-27T00:16:05.379Z,24.25
2018-05-27T00:16:36.564Z,23.60
2018-05-27T00:17:07.751Z,25.27
2018-05-27T00:17:39.257Z,26.75
2018-05-27T00:18:10.445Z,24.42
2018-05-27T00:18:41.626Z,26.90
2018-05-27T00:19:12.809Z,26.10
2018-05-27T00:19:43.991Z,26.92
2018-05-27T00:20:15.174Z,24.10
2018-05-27T00:20:46.349Z,22.80
2018-05-27T00:21:17.570Z,23.45
2018-05-27T00:21:48.748Z,22.35
2018-05-27T00:22:19.933Z,23.23
2018-05-27T00:22:51.185Z,22.92
2018-05-27T00:23:22.364Z,24.60
2018-05-27T00:23:53.545Z,23.08
2018-05-27T00:24:24.736Z,24.08
2018-05-27T00:24:55.917Z,23.17
2018-05-27T00:25:27.141Z,24.37
2018-05-27T00:25:58.330Z,24.73
2018-05-27T00:26:29.553Z,25.73
2018-05-27T00:27:00.733Z,25.80
2018-05-27T00:27:31.917Z,25.83
2018-05-27T00:28:03.106Z,26.65
2018-05-27T00:28:34.292Z,28.95
2018-05-27T00:29:05.477Z,27.45
2018-05-27T00:29:36.715Z,28.48
2018-05-27T00:30:07.940Z,29.10
2018-05-27T00:30:39.121Z,28.05
2018-05-27T00:31:10.553Z,28.52
2018-05-27T00:31:41.749Z,27.37
2018-05-27T00:32:12.932Z,28.52
2018-05-27T00:32:44.121Z,30.15
2018-05-27T00:33:15.302Z,28.92
2018-05-27T00:33:46.497Z,26.52
2018-05-27T00:34:17.725Z,26.08
2018-05-27T00:34:48.920Z,23.52
2018-05-27T00:35:20.148Z,24.77
2018-05-27T00:35:51.324Z,26.27
2018-05-27T00:36:22.510Z,25.05
2018-05-27T00:36:53.701Z,25.40
2018-05-27T00:37:24.885Z,25.00
2018-05-27T00:37:56.069Z,24.85
2018-05-27T00:38:27.252Z,26.67
2018-05-27T00:38:58.437Z,24.42
2018-05-27T00:39:29.652Z,25.23
2018-05-27T00:40:00.835Z,23.65
2018-05-27T00:40:32.053Z,22.25
2018-05-27T00:41:03.277Z,22.48
2018-05-27T00:41:34.464Z,22.80
2018-05-27T00:42:05.644Z,21.85
2018-05-27T00:42:36.834Z,21.85
2018-05-27T00:43:08.061Z,21.02
2018-05-27T00:43:39.243Z,21.12
2018-05-27T00:44:10.429Z,21.17
2018-05-27T00:44:41.612Z,22.20
2018-05-27T00:45:12.792Z,22.20
2018-05-27T00:45:43.983Z,23.30
2018-05-27T00:46:15.168Z,23.65
2018-05-27T00:46:46.358Z,23.17
2018-05-27T00:47:17.550Z,22.13
2018-05-27T00:47:48.772Z,23.58
2018-05-27T00:48:19.947Z,24.23
2018-05-27T00:48:51.133Z,24.55
2018-05-27T00:49:22.313Z,24.17
2018-05-27T00:49:53.578Z,24.10
2018-05-27T00:50:25.493Z,24.05
2018-05-27T00:50:56.675Z,23.87
2018-05-27T00:51:27.857Z,25.67
2018-05-27T00:51:59.037Z,24.90
2018-05-27T00:52:30.318Z,25.95
2018-05-27T00:53:01.502Z,25.80
2018-05-27T00:53:32.678Z,26.10
2018-05-27T00:54:03.865Z,28.30
2018-05-27T00:54:35.046Z,27.30
2018-05-27T00:55:06.225Z,28.08
2018-05-27T00:55:37.413Z,27.77
2018-05-27T00:56:08.608Z,25.37
2018-05-27T00:56:39.792Z,25.83
2018-05-27T00:57:10.975Z,26.30
2018-05-27T00:57:43.426Z,24.98
2018-05-27T00:58:14.608Z,23.12
2018-05-27T00:58:45.802Z,23.50
2018-05-27T00:59:16.990Z,22.33
2018-05-27T00:59:48.182Z,22.45
2018-05-27T01:00:19.370Z,24.02
2018-05-27T01:00:50.554Z,22.42
2018-05-27T01:01:21.747Z,22.58
2018-05-27T01:01:52.929Z,22.70
2018-05-27T01:02:24.165Z,23.48
2018-05-27T01:02:55.353Z,23.65
2018-05-27T01:03:26.545Z,24.58
2018-05-27T01:03:57.732Z,25.90
2018-05-27T01:04:28.936Z,25.30
2018-05-27T01:05:00.152Z,26.37
2018-05-27T01:05:31.357Z,25.92
2018-05-27T01:06:02.541Z,25.25
2018-05-27T01:06:33.761Z,27.00
2018-05-27T01:07:04.944Z,27.67
2018-05-27T01:07:36.137Z,26.90
2018-05-27T01:08:07.326Z,28.35
2018-05-27T01:08:38.512Z,28.55
2018-05-27T01:09:09.700Z,27.23
2018-05-27T01:09:40.884Z,26.25
2018-05-27T01:10:12.876Z,26.33
2018-05-27T01:10:44.057Z,26.92
2018-05-27T01:11:15.301Z,26.70
2018-05-27T01:11:46.548Z,26.48
2018-05-27T01:12:17.737Z,28.15
2018-05-27T01:12:48.924Z,27.23
2018-05-27T01:13:20.106Z,27.40
2018-05-27T01:13:51.290Z,26.80
2018-05-27T01:14:22.468Z,26.92
2018-05-27T01:14:53.653Z,27.08
2018-05-27T01:15:24.837Z,24.83
2018-05-27T01:15:56.025Z,25.37
2018-05-27T01:16:27.249Z,23.95
2018-05-27T01:16:58.432Z,25.45
2018-05-27T01:17:29.650Z,23.60
2018-05-27T01:18:00.830Z,25.45
2018-05-27T01:18:32.044Z,23.20
2018-05-27T01:19:03.233Z,23.75
2018-05-27T01:19:34.410Z,25.50
2018-05-27T01:20:05.593Z,25.27
2018-05-27T01:20:36.772Z,24.42
2018-05-27T01:21:07.954Z,22.42
2018-05-27T01:21:39.146Z,22.40
2018-05-27T01:22:10.404Z,22.40
2018-05-27T01:22:41.592Z,21.35
2018-05-27T01:23:12.783Z,21.87
2018-05-27T01:23:43.964Z,22.02
2018-05-27T01:24:15.140Z,22.92
2018-05-27T01:24:46.321Z,23.33
2018-05-27T01:25:17.498Z,24.15
2018-05-27T01:25:48.684Z,21.08
2018-05-27T01:26:19.873Z,23.27
2018-05-27T01:26:51.124Z,22.25
2018-05-27T01:27:22.943Z,22.90
2018-05-27T01:27:55.033Z,22.98
2018-05-27T01:28:26.216Z,21.62
2018-05-27T01:28:57.397Z,22.13
2018-05-27T01:29:28.573Z,21.08
2018-05-27T01:29:59.749Z,20.90
2018-05-27T01:30:30.960Z,19.20
2018-05-27T01:31:02.145Z,20.73
2018-05-27T01:31:33.338Z,21.15
2018-05-27T01:32:04.552Z,20.98
2018-05-27T01:32:35.737Z,20.90
2018-05-27T01:33:06.920Z,20.45
2018-05-27T01:33:38.100Z,21.37
2018-05-27T01:34:09.287Z,18.77
2018-05-27T01:34:40.460Z,19.83
2018-05-27T01:35:11.643Z,21.00
2018-05-27T01:35:42.857Z,20.62
2018-05-27T01:36:14.046Z,19.87
2018-05-27T01:36:45.234Z,21.67
2018-05-27T01:37:16.458Z,21.20
2018-05-27T01:37:47.642Z,21.45
2018-05-27T01:38:18.833Z,20.27
2018-05-27T01:38:50.041Z,21.33
2018-05-27T01:39:21.221Z,19.25
2018-05-27T01:39:52.452Z,20.30
2018-05-27T01:40:23.645Z,20.40
2018-05-27T01:40:54.849Z,22.10
2018-05-27T01:41:26.040Z,22.42
2018-05-27T01:41:57.221Z,22.23
2018-05-27T01:42:28.408Z,21.85
2018-05-27T01:42:59.605Z,22.15
2018-05-27T01:43:30.805Z,21.42
2018-05-27T01:44:03.217Z,20.75
2018-05-27T01:44:34.967Z,22.33
2018-05-27T01:45:06.160Z,22.37
2018-05-27T01:45:37.402Z,21.65
2018-05-27T01:46:08.644Z,22.62
2018-05-27T01:46:39.826Z,22.80
2018-05-27T01:47:11.005Z,22.20
2018-05-27T01:47:42.265Z,22.67
2018-05-27T01:48:13.445Z,22.05
2018-05-27T01:48:45.253Z,21.20
2018-05-27T01:49:16.429Z,21.42
2018-05-27T01:49:47.612Z,21.08
2018-05-27T01:50:18.792Z,21.80
2018-05-27T01:50:49.994Z,21.35
2018-05-27T01:51:21.181Z,21.52
2018-05-27T01:51:52.364Z,19.92
2018-05-27T01:52:23.544Z,21.80
2018-05-27T01:52:54.771Z,19.50
2018-05-27T01:53:25.957Z,20.98
2018-05-27T01:53:57.141Z,21.95
2018-05-27T01:54:28.321Z,20.45
2018-05-27T01:54:59.502Z,21.40
2018-05-27T01:55:30.684Z,21.73
2018-05-27T01:56:01.869Z,22.95
2018-05-27T01:56:33.052Z,22.27
2018-05-27T01:57:04.270Z,22.52
2018-05-27T01:57:35.454Z,23.90
2018-05-27T01:58:06.633Z,22.00
2018-05-27T01:58:37.813Z,23.17
2018-05-27T01:59:09.051Z,21.52
2018-05-27T01:59:40.236Z,22.33
2018-05-27T02:00:11.423Z,23.83
2018-05-27T02:00:42.613Z,22.73
2018-05-27T02:01:13.798Z,22.50
2018-05-27T02:01:44.989Z,21.87
2018-05-27T02:02:16.185Z,21.85
2018-05-27T02:02:47.371Z,23.45
2018-05-27T02:03:18.560Z,20.50
2018-05-27T02:03:49.751Z,22.05
2018-05-27T02:04:20.987Z,22.35
2018-05-27T02:04:52.169Z,26.17
2018-05-27T02:05:23.357Z,23.20
2018-05-27T02:05:54.578Z,24.25
2018-05-27T02:06:25.759Z,22.87
2018-05-27T02:06:56.946Z,23.20
2018-05-27T02:07:28.145Z,23.40
2018-05-27T02:07:59.338Z,22.85
2018-05-27T02:08:30.520Z,20.88
2018-05-27T02:09:01.705Z,20.92
2018-05-27T02:09:32.899Z,20.42
2018-05-27T02:10:04.092Z,20.08
2018-05-27T02:10:35.306Z,20.35
2018-05-27T02:11:06.498Z,18.87
2018-05-27T02:11:37.726Z,22.25
2018-05-27T02:12:08.909Z,18.62
2018-05-27T02:12:40.097Z,19.35
2018-05-27T02:13:11.901Z,19.92
2018-05-27T02:13:43.091Z,19.98
2018-05-27T02:14:14.265Z,20.60
2018-05-27T02:14:45.441Z,21.37
2018-05-27T02:15:16.634Z,19.48
2018-05-27T02:15:47.825Z,20.75
2018-05-27T02:16:19.064Z,19.45
2018-05-27T02:16:50.244Z,19.20
2018-05-27T02:17:21.469Z,20.48
2018-05-27T02:17:52.651Z,19.27
2018-05-27T02:18:23.822Z,21.23
2018-05-27T02:18:55.023Z,20.62
2018-05-27T02:19:26.204Z,19.15
2018-05-27T02:19:57.395Z,20.37
2018-05-27T02:20:28.587Z,19.62
2018-05-27T02:20:59.787Z,18.45
2018-05-27T02:21:30.965Z,18.50
2018-05-27T02:22:02.152Z,20.10
2018-05-27T02:22:33.374Z,19.65
2018-05-27T02:23:04.549Z,20.27
2018-05-27T02:23:35.744Z,24.45
2018-05-27T02:24:06.950Z,19.02
2018-05-27T02:24:38.138Z,20.27
2018-05-27T02:25:09.319Z,23.00
2018-05-27T02:25:40.502Z,19.23
2018-05-27T02:26:11.680Z,21.10
2018-05-27T02:26:42.869Z,21.17
2018-05-27T02:27:14.091Z,20.77
2018-05-27T02:27:45.289Z,20.83
2018-05-27T02:28:16.480Z,19.95
2018-05-27T02:28:47.661Z,20.77
2018-05-27T02:29:18.851Z,20.50
2018-05-27T02:29:50.034Z,20.08
2018-05-27T02:30:21.218Z,20.75
2018-05-27T02:30:52.441Z,20.27
2018-05-27T02:31:23.625Z,20.15
2018-05-27T02:31:54.855Z,20.27
2018-05-27T02:32:26.041Z,18.98
2018-05-27T02:32:57.221Z,20.27
2018-05-27T02:33:28.437Z,20.10
2018-05-27T02:33:59.620Z,20.35
2018-05-27T02:34:30.813Z,19.02
2018-05-27T02:35:02.018Z,19.67
2018-05-27T02:35:33.213Z,19.37
2018-05-27T02:36:04.398Z,19.60
2018-05-27T02:36:35.594Z,20.50
2018-05-27T02:37:06.781Z,19.60
2018-05-27T02:37:37.964Z,20.70
2018-05-27T02:38:09.153Z,20.45
2018-05-27T02:38:40.413Z,21.85
2018-05-27T02:39:11.596Z,22.77
2018-05-27T02:39:42.781Z,21.35
2018-05-27T02:40:13.962Z,20.90
2018-05-27T02:40:45.163Z,20.30
2018-05-27T02:41:16.349Z,21.40
2018-05-27T02:41:47.537Z,20.62
2018-05-27T02:42:18.723Z,21.30
2018-05-27T02:42:49.917Z,20.37
2018-05-27T02:43:21.100Z,20.80
2018-05-27T02:43:52.333Z,21.42
2018-05-27T02:44:23.518Z,21.45
2018-05-27T02:44:54.732Z,22.05
2018-05-27T02:45:25.922Z,23.67
2018-05-27T02:45:57.109Z,20.88
2018-05-27T02:46:28.317Z,21.17
2018-05-27T02:46:59.516Z,20.37
2018-05-27T02:47:30.708Z,21.15
2018-05-27T02:48:01.942Z,21.87
2018-05-27T02:48:33.125Z,20.62
2018-05-27T02:49:04.369Z,19.05
2018-05-27T02:49:35.556Z,20.10
2018-05-27T02:50:06.737Z,20.48
2018-05-27T02:50:37.928Z,20.23
2018-05-27T02:51:09.125Z,20.67
2018-05-27T02:51:40.348Z,19.55
2018-05-27T02:52:11.525Z,19.85
2018-05-27T02:52:42.710Z,18.77
2018-05-27T02:53:13.902Z,21.80
2018-05-27T02:53:45.137Z,19.48
2018-05-27T02:54:16.328Z,22.58
2018-05-27T02:54:47.571Z,17.70
2018-05-27T02:55:18.757Z,22.33
2018-05-27T02:55:49.937Z,19.85
2018-05-27T02:56:21.120Z,20.37
2018-05-27T02:56:52.298Z,19.60
2018-05-27T02:57:23.517Z,18.83
2018-05-27T02:57:54.743Z,19.67
2018-05-27T02:58:25.945Z,19.98
2018-05-27T02:58:57.129Z,20.20
2018-05-27T02:59:28.304Z,19.60
2018-05-27T02:59:59.491Z,19.23
2018-05-27T03:00:30.681Z,19.23
2018-05-27T03:01:01.904Z,18.98
2018-05-27T03:01:33.083Z,18.87
2018-05-27T03:02:04.261Z,19.40
2018-05-27T03:02:35.448Z,20.30
2018-05-27T03:03:06.638Z,20.80
2018-05-27T03:03:37.818Z,18.85
2018-05-27T03:04:09.001Z,18.12
2018-05-27T03:04:40.186Z,20.15
2018-05-27T03:05:11.373Z,18.65
2018-05-27T03:05:42.595Z,17.95
2018-05-27T03:06:13.784Z,17.95
2018-05-27T03:06:44.978Z,19.05
2018-05-27T03:07:16.171Z,18.75
2018-05-27T03:07:47.345Z,18.95
2018-05-27T03:08:18.525Z,22.15
2018-05-27T03:08:49.910Z,18.25
2018-05-27T03:09:21.127Z,19.23
2018-05-27T03:09:53.933Z,20.70
2018-05-27T03:10:25.153Z,21.45
2018-05-27T03:10:56.341Z,18.98
2018-05-27T03:11:27.529Z,19.27
2018-05-27T03:11:58.728Z,19.77
2018-05-27T03:12:29.910Z,18.62
2018-05-27T03:13:01.093Z,20.80
2018-05-27T03:13:32.287Z,18.77
2018-05-27T03:14:03.528Z,19.27
2018-05-27T03:14:34.740Z,18.27
2018-05-27T03:15:07.026Z,20.75
2018-05-27T03:15:38.213Z,19.73
2018-05-27T03:16:09.401Z,19.23
2018-05-27T03:16:40.660Z,20.45
2018-05-27T03:17:11.833Z,20.90
2018-05-27T03:17:43.057Z,20.05
2018-05-27T03:18:14.241Z,20.33
2018-05-27T03:18:45.422Z,20.40
2018-05-27T03:19:16.616Z,21.87
2018-05-27T03:19:47.798Z,20.95
2018-05-27T03:20:19.690Z,22.15
2018-05-27T03:20:50.930Z,19.70
2018-05-27T03:21:22.122Z,20.98
2018-05-27T03:21:53.315Z,22.25
2018-05-27T03:22:24.497Z,20.67
2018-05-27T03:22:55.730Z,27.42
2018-05-27T03:23:26.920Z,21.15
2018-05-27T03:23:58.109Z,21.77
2018-05-27T03:24:29.293Z,20.58
2018-05-27T03:25:00.478Z,19.77
2018-05-27T03:25:31.661Z,20.98
2018-05-27T03:26:02.841Z,19.65
2018-05-27T03:26:34.034Z,20.42
2018-05-27T03:27:05.225Z,19.95
2018-05-27T03:27:36.417Z,19.33
2018-05-27T03:28:07.643Z,19.00
2018-05-27T03:28:38.839Z,19.20
2018-05-27T03:29:11.099Z,20.83
2018-05-27T03:29:42.284Z,22.20
2018-05-27T03:30:13.464Z,18.87
2018-05-27T03:30:44.653Z,19.17
2018-05-27T03:31:15.829Z,18.65
2018-05-27T03:31:47.060Z,20.00
2018-05-27T03:32:18.257Z,19.45
2018-05-27T03:32:49.433Z,19.40
2018-05-27T03:33:20.623Z,20.25
2018-05-27T03:33:51.847Z,18.87
2018-05-27T03:34:23.033Z,18.83
2018-05-27T03:34:54.223Z,20.50
2018-05-27T03:35:25.425Z,21.62
2018-05-27T03:35:56.649Z,20.80
2018-05-27T03:36:27.839Z,22.50
2018-05-27T03:36:59.031Z,19.90
2018-05-27T03:37:30.208Z,18.48
2018-05-27T03:38:01.410Z,18.25
2018-05-27T03:38:32.601Z,19.55
2018-05-27T03:39:03.863Z,19.02
2018-05-27T03:39:35.064Z,21.20
2018-05-27T03:40:06.273Z,18.30
2018-05-27T03:40:37.461Z,18.55
2018-05-27T03:41:08.662Z,18.48
2018-05-27T03:41:39.842Z,18.70
2018-05-27T03:42:11.061Z,18.55
2018-05-27T03:42:42.506Z,18.98
2018-05-27T03:43:13.696Z,19.95
2018-05-27T03:43:44.882Z,18.98
2018-05-27T03:44:16.071Z,18.62
2018-05-27T03:44:47.299Z,18.70
2018-05-27T03:45:19.264Z,19.50
2018-05-27T03:45:50.445Z,19.40
2018-05-27T03:46:21.669Z,19.15
2018-05-27T03:46:53.307Z,18.52
2018-05-27T03:47:25.562Z,19.35
2018-05-27T03:47:56.740Z,20.75
2018-05-27T03:48:27.920Z,19.25
2018-05-27T03:48:59.111Z,18.95
2018-05-27T03:49:30.305Z,18.77
2018-05-27T03:50:01.525Z,17.98
2018-05-27T03:50:32.732Z,17.85
2018-05-27T03:51:03.921Z,18.25
2018-05-27T03:51:35.105Z,19.58
2018-05-27T03:52:06.292Z,22.00
2018-05-27T03:52:37.478Z,19.08
2018-05-27T03:53:08.660Z,25.70
2018-05-27T03:53:39.848Z,19.60
2018-05-27T03:54:11.072Z,20.10
2018-05-27T03:54:42.252Z,19.87
2018-05-27T03:55:13.437Z,18.60
2018-05-27T03:55:44.672Z,19.25
2018-05-27T03:56:15.854Z,20.62
2018-05-27T03:56:47.033Z,22.83
2018-05-27T03:57:18.217Z,19.80
2018-05-27T03:57:49.408Z,21.10
2018-05-27T03:58:20.588Z,19.55
2018-05-27T03:58:51.769Z,22.40
2018-05-27T03:59:22.946Z,20.98
2018-05-27T03:59:54.137Z,21.02
2018-05-27T04:00:25.324Z,21.83
2018-05-27T04:00:56.546Z,21.27
2018-05-27T04:01:27.733Z,21.75
2018-05-27T04:01:58.938Z,20.45
2018-05-27T04:02:30.126Z,19.45
2018-05-27T04:03:01.319Z,21.12
2018-05-27T04:03:32.531Z,20.12
2018-05-27T04:04:03.782Z,20.50
2018-05-27T04:04:34.982Z,20.80
2018-05-27T04:05:06.207Z,20.50
2018-05-27T04:05:37.397Z,21.30
2018-05-27T04:06:08.591Z,21.05
2018-05-27T04:06:39.772Z,22.35
2018-05-27T04:07:11.010Z,19.33
2018-05-27T04:07:42.210Z,19.58
2018-05-27T04:08:13.397Z,18.12
2018-05-27T04:08:44.586Z,18.65
2018-05-27T04:09:15.780Z,19.92
2018-05-27T04:09:46.969Z,17.85
2018-05-27T04:10:18.160Z,18.48
2018-05-27T04:10:49.353Z,20.02
2018-05-27T04:11:20.532Z,21.27
2018-05-27T04:11:51.712Z,18.52
2018-05-27T04:12:22.941Z,18.85
2018-05-27T04:12:54.133Z,17.87
2018-05-27T04:13:25.313Z,21.50
2018-05-27T04:13:56.507Z,17.98
2018-05-27T04:14:27.709Z,19.08
2018-05-27T04:14:58.923Z,19.35
2018-05-27T04:15:30.115Z,19.48
2018-05-27T04:16:01.316Z,19.95
2018-05-27T04:16:32.550Z,19.40
2018-05-27T04:17:03.756Z,23.58
2018-05-27T04:17:34.947Z,18.85
2018-05-27T04:18:06.214Z,19.95
2018-05-27T04:18:37.404Z,19.92
2018-05-27T04:19:08.598Z,23.67
2018-05-27T04:19:39.795Z,16.85
2018-05-27T04:20:10.972Z,17.55
2018-05-27T04:20:42.158Z,16.60
2018-05-27T04:21:13.361Z,18.73
2018-05-27T04:21:44.547Z,18.45
2018-05-27T04:22:15.729Z,13.73
2018-05-27T04:22:46.905Z,15.48
2018-05-27T04:23:18.181Z,16.85
2018-05-27T04:23:49.409Z,20.10
2018-05-27T04:24:20.602Z,19.77
2018-05-27T04:24:51.792Z,18.90
2018-05-27T04:25:22.977Z,22.02
2018-05-27T04:25:54.170Z,18.50
2018-05-27T04:26:25.353Z,17.85
2018-05-27T04:26:56.543Z,16.60
2018-05-27T04:27:27.757Z,17.58
2018-05-27T04:27:58.948Z,16.58
2018-05-27T04:28:30.207Z,16.10
2018-05-27T04:29:01.431Z,14.63
2018-05-27T04:29:32.621Z,16.05
2018-05-27T04:30:03.812Z,17.33
2018-05-27T04:30:35.000Z,17.17
2018-05-27T04:31:06.184Z,18.90
2018-05-27T04:31:37.368Z,16.45
2018-05-27T04:32:08.552Z,17.40
2018-05-27T04:32:39.736Z,18.00
2018-05-27T04:33:10.930Z,16.55
2018-05-27T04:33:42.113Z,16.27
2018-05-27T04:34:13.350Z,16.30
2018-05-27T04:34:44.561Z,18.27
2018-05-27T04:35:15.741Z,16.15
2018-05-27T04:35:46.969Z,15.35
2018-05-27T04:36:18.150Z,17.08
2018-05-27T04:36:49.342Z,15.82
2018-05-27T04:37:20.538Z,19.27
2018-05-27T04:37:51.725Z,16.40
2018-05-27T04:38:22.973Z,14.73
2018-05-27T04:38:54.154Z,16.42
2018-05-27T04:39:25.337Z,15.63
2018-05-27T04:39:56.516Z,16.10
2018-05-27T04:40:27.713Z,14.15
2018-05-27T04:40:58.909Z,17.55
2018-05-27T04:41:30.104Z,18.50
2018-05-27T04:42:01.292Z,14.45
2018-05-27T04:42:32.485Z,17.70
2018-05-27T04:43:03.721Z,16.27
2018-05-27T04:43:34.914Z,16.80
2018-05-27T04:44:06.098Z,17.12
2018-05-27T04:44:37.278Z,16.10
2018-05-27T04:45:08.457Z,17.62
2018-05-27T04:45:39.638Z,15.15
2018-05-27T04:46:10.821Z,18.02
2018-05-27T04:46:42.009Z,15.55
2018-05-27T04:47:13.199Z,18.20
2018-05-27T04:47:44.385Z,17.92
2018-05-27T04:48:15.625Z,16.65
2018-05-27T04:48:46.809Z,15.55
2018-05-27T04:49:17.992Z,14.68
2018-05-27T04:49:49.176Z,18.87
2018-05-27T04:50:20.373Z,15.60
2018-05-27T04:50:51.565Z,16.17
2018-05-27T04:51:22.765Z,15.90
2018-05-27T04:51:53.977Z,16.05
2018-05-27T04:52:25.509Z,17.10
2018-05-27T04:52:57.011Z,15.88
2018-05-27T04:53:28.292Z,17.15
2018-05-27T04:53:59.653Z,16.25
2018-05-27T04:54:30.903Z,14.63
2018-05-27T04:55:02.117Z,15.75
2018-05-27T04:55:33.316Z,15.23
2018-05-27T04:56:04.501Z,15.73
2018-05-27T04:56:35.691Z,12.93
2018-05-27T04:57:06.880Z,13.80
2018-05-27T04:57:38.069Z,15.00
2018-05-27T04:58:09.266Z,13.48
2018-05-27T04:58:40.508Z,17.83
2018-05-27T04:59:11.698Z,16.27
2018-05-27T04:59:42.896Z,15.52
2018-05-27T05:00:14.099Z,17.42
2018-05-27T05:00:45.285Z,14.48
2018-05-27T05:01:16.474Z,14.85
2018-05-27T05:01:47.665Z,14.20
2018-05-27T05:02:18.893Z,13.98
2018-05-27T05:02:50.080Z,13.80
2018-05-27T05:03:21.280Z,13.10
2018-05-27T05:03:52.469Z,13.88
2018-05-27T05:04:23.681Z,16.70
2018-05-27T05:04:54.869Z,14.98
2018-05-27T05:05:26.056Z,14.20
2018-05-27T05:05:57.245Z,15.95
2018-05-27T05:06:28.434Z,16.67
2018-05-27T05:06:59.668Z,12.68
2018-05-27T05:07:30.866Z,16.55
2018-05-27T05:08:02.065Z,14.52
2018-05-27T05:08:33.259Z,13.40
2018-05-27T05:09:04.449Z,14.10
2018-05-27T05:09:35.653Z,14.73
2018-05-27T05:10:06.857Z,17.80
2018-05-27T05:10:38.050Z,14.02
2018-05-27T05:11:09.291Z,13.77
2018-05-27T05:11:40.513Z,13.98
2018-05-27T05:12:11.721Z,14.63
2018-05-27T05:12:42.905Z,13.48
2018-05-27T05:13:14.091Z,14.68
2018-05-27T05:13:45.300Z,15.55
2018-05-27T05:14:16.497Z,15.98
2018-05-27T05:14:47.733Z,12.80
2018-05-27T05:15:18.921Z,13.30
2018-05-27T05:15:50.108Z,14.23
2018-05-27T05:16:21.357Z,13.32
2018-05-27T05:16:52.566Z,15.80
2018-05-27T05:17:23.768Z,12.90
2018-05-27T05:17:54.970Z,14.38
2018-05-27T05:18:26.165Z,15.38
2018-05-27T05:18:57.360Z,14.38
2018-05-27T05:19:28.554Z,12.07
2018-05-27T05:19:59.761Z,13.80
2018-05-27T05:20:30.953Z,12.53
2018-05-27T05:21:02.153Z,14.97
2018-05-27T05:21:33.370Z,11.77
2018-05-27T05:22:04.612Z,12.47
2018-05-27T05:22:35.783Z,12.50
2018-05-27T05:23:07.093Z,13.70
2018-05-27T05:23:38.285Z,14.77
2018-05-27T05:24:09.467Z,14.03
2018-05-27T05:24:40.644Z,12.17
2018-05-27T05:25:11.825Z,11.77
2018-05-27T05:25:43.013Z,13.10
2018-05-27T05:26:14.197Z,12.77
2018-05-27T05:26:45.373Z,10.57
2018-05-27T05:27:16.553Z,11.07
2018-05-27T05:27:47.784Z,10.50
2018-05-27T05:28:18.979Z,13.90
2018-05-27T05:28:50.153Z,14.10
2018-05-27T05:29:21.342Z,12.03
2018-05-27T05:29:52.520Z,12.13
2018-05-27T05:30:23.704Z,10.40
2018-05-27T05:30:54.885Z,10.23
2018-05-27T05:31:26.067Z,9.63
2018-05-27T05:31:57.244Z,8.90
2018-05-27T05:32:28.421Z,9.20
2018-05-27T05:32:59.637Z,12.60
2018-05-27T05:33:30.826Z,9.20
2018-05-27T05:34:02.038Z,9.20
2018-05-27T05:34:33.217Z,10.97
2018-05-27T05:35:04.393Z,9.67
2018-05-27T05:35:35.564Z,9.47
2018-05-27T05:36:06.733Z,9.87
2018-05-27T05:36:37.905Z,13.30
2018-05-27T05:37:09.141Z,10.40
2018-05-27T05:37:40.318Z,12.40
2018-05-27T05:38:11.544Z,10.13
2018-05-27T05:38:42.772Z,9.43
2018-05-27T05:39:13.948Z,10.53
2018-05-27T05:39:45.124Z,10.00
2018-05-27T05:40:16.320Z,9.83
2018-05-27T05:40:47.504Z,9.73
2018-05-27T05:41:18.734Z,10.13
2018-05-27T05:41:49.909Z,10.43
2018-05-27T05:42:21.091Z,9.33
2018-05-27T05:42:52.269Z,8.77
2018-05-27T05:43:23.484Z,9.80
2018-05-27T05:43:54.665Z,9.70
2018-05-27T05:44:25.893Z,12.37
2018-05-27T05:44:57.105Z,10.33
2018-05-27T05:45:28.281Z,10.57
2018-05-27T05:45:59.464Z,10.67
2018-05-27T05:46:30.646Z,10.33
2018-05-27T05:47:01.837Z,12.50
2018-05-27T05:47:33.018Z,10.57
2018-05-27T05:48:04.209Z,11.30
2018-05-27T05:48:35.385Z,10.10
2018-05-27T05:49:06.568Z,10.00
2018-05-27T05:49:37.794Z,9.33
2018-05-27T05:50:08.984Z,9.53
2018-05-27T05:50:40.156Z,11.00
2018-05-27T05:51:11.338Z,14.03
2018-05-27T05:51:42.534Z,11.77
2018-05-27T05:52:13.712Z,10.97
2018-05-27T05:52:44.889Z,14.37
2018-05-27T05:53:16.069Z,9.90
2018-05-27T05:53:47.260Z,11.37
2018-05-27T05:54:18.445Z,10.00
2018-05-27T05:54:49.666Z,14.93
2018-05-27T05:55:20.881Z,12.17
2018-05-27T05:55:52.084Z,11.37
2018-05-27T05:56:23.268Z,10.10
2018-05-27T05:56:54.463Z,10.73
2018-05-27T05:57:25.657Z,10.70
2018-05-27T05:57:56.845Z,11.30
2018-05-27T05:58:28.029Z,9.97
2018-05-27T05:58:59.216Z,12.87
2018-05-27T05:59:30.396Z,11.37
2018-05-27T06:00:01.627Z,11.07
2018-05-27T06:00:32.812Z,10.17
2018-05-27T06:01:03.991Z,10.73
2018-05-27T06:01:35.169Z,10.67
2018-05-27T06:02:06.458Z,12.30
2018-05-27T06:02:37.646Z,10.23
2018-05-27T06:03:08.831Z,11.00
2018-05-27T06:03:40.020Z,12.97
2018-05-27T06:04:11.201Z,12.30
2018-05-27T06:04:42.386Z,10.93
2018-05-27T06:05:13.616Z,10.90
2018-05-27T06:05:44.797Z,10.40
2018-05-27T06:06:15.983Z,12.03
2018-05-27T06:06:47.164Z,12.57
2018-05-27T06:07:18.343Z,11.20
2018-05-27T06:07:49.540Z,11.40
2018-05-27T06:08:20.730Z,11.70
2018-05-27T06:08:51.910Z,11.47
2018-05-27T06:09:23.093Z,14.00
2018-05-27T06:09:54.277Z,11.50
2018-05-27T06:10:25.510Z,11.00
2018-05-27T06:10:56.693Z,12.17
2018-05-27T06:11:27.872Z,11.30
2018-05-27T06:11:59.053Z,10.10
2018-05-27T06:12:30.230Z,10.73
2018-05-27T06:13:01.427Z,11.90
2018-05-27T06:13:32.650Z,11.90
2018-05-27T06:14:03.813Z,10.17
2018-05-27T06:14:34.989Z,13.43
2018-05-27T06:15:06.169Z,11.43
2018-05-27T06:15:37.396Z,10.33
2018-05-27T06:16:08.589Z,10.17
2018-05-27T06:16:39.778Z,12.17
2018-05-27T06:17:11.011Z,10.87
2018-05-27T06:17:42.198Z,12.30
2018-05-27T06:18:13.377Z,11.77
2018-05-27T06:18:44.565Z,10.60
2018-05-27T06:19:15.771Z,11.83
2018-05-27T06:19:46.952Z,10.20
2018-05-27T06:20:18.131Z,9.93
2018-05-27T06:20:49.310Z,11.30
2018-05-27T06:21:20.490Z,9.47
2018-05-27T06:21:51.672Z,9.67
2018-05-27T06:22:22.885Z,10.73
2018-05-27T06:22:54.076Z,9.23
2018-05-27T06:23:25.270Z,8.77
2018-05-27T06:23:56.452Z,11.00
2018-05-27T06:24:27.642Z,8.70
2018-05-27T06:24:58.817Z,8.07
2018-05-27T06:25:29.997Z,8.67
2018-05-27T06:26:01.216Z,8.23
2018-05-27T06:26:32.436Z,10.17
2018-05-27T06:27:03.621Z,8.07
2018-05-27T06:27:34.814Z,8.87
2018-05-27T06:28:05.998Z,8.30
2018-05-27T06:28:37.194Z,8.50
2018-05-27T06:29:08.378Z,10.43
2018-05-27T06:29:39.571Z,8.23
2018-05-27T06:30:10.759Z,8.03
2018-05-27T06:30:41.973Z,9.97
2018-05-27T06:31:13.151Z,8.27
2018-05-27T06:31:44.328Z,8.33
2018-05-27T06:32:15.509Z,7.77
2018-05-27T06:32:46.693Z,8.23
2018-05-27T06:33:20.476Z,8.67
2018-05-27T06:33:51.659Z,8.47
2018-05-27T06:34:22.847Z,8.27
2018-05-27T06:34:54.070Z,10.73
2018-05-27T06:35:25.245Z,7.53
2018-05-27T06:35:56.445Z,7.90
2018-05-27T06:36:27.639Z,8.57
2018-05-27T06:36:58.818Z,8.20
2018-05-27T06:37:30.009Z,8.87
2018-05-27T06:38:01.198Z,8.30
2018-05-27T06:38:32.379Z,9.47
2018-05-27T06:39:03.557Z,8.70
2018-05-27T06:39:34.792Z,8.33
2018-05-27T06:40:06.104Z,9.10
2018-05-27T06:40:37.285Z,8.93
2018-05-27T06:41:08.466Z,9.93
2018-05-27T06:41:39.654Z,9.07
2018-05-27T06:42:10.840Z,9.43
2018-05-27T06:42:42.056Z,7.37
2018-05-27T06:43:13.292Z,9.57